RYR85HE EGPH-EBCI
Flight info
| Callsign | RYR85HE |
|---|---|
| Flight time | 1h 29m |
| Altitude | 39000 |
| Route | GOSAM P600 FENIK L612 NAVSO DCT AKOMU DCT VAMEB UL612 HON L15 BIG Q70 VABIK/N0352F230 Q70 KOK |
| Aircraft | B738/M-SDE3FGILRWY/SB1 |
Departure
| Time | 2026-04-25 08:40 |
|---|---|
| Airport | Edinburgh Airport (EGPH) |
Arrival
| Time | 2026-04-25 10:09 |
|---|---|
| Airport | Brussels South Charleroi Airport (EBCI) |
| Time | Latitude | Longitude | Altitude | Speed | Heading |
|---|---|---|---|---|---|
| 2026-04-25 08:21 | 55.94812 | -3.35748 | 115 ft | 0 kts | 208° |
| 2026-04-25 08:31 | 55.94819 | -3.35740 | 115 ft | 4 kts | 208° |
| 2026-04-25 08:31 | 55.94843 | -3.35717 | 112 ft | 4 kts | 212° |
| 2026-04-25 08:31 | 55.94864 | -3.35688 | 114 ft | 4 kts | 233° |
| 2026-04-25 08:32 | 55.94870 | -3.35657 | 111 ft | 2 kts | 298° |
| 2026-04-25 08:32 | 55.94870 | -3.35655 | 111 ft | 1 kts | 298° |
| 2026-04-25 08:34 | 55.94870 | -3.35656 | 111 ft | 1 kts | 298° |
| 2026-04-25 08:34 | 55.94891 | -3.35729 | 113 ft | 12 kts | 297° |
| 2026-04-25 08:35 | 55.94946 | -3.35862 | 114 ft | 13 kts | 339° |
| 2026-04-25 08:35 | 55.95029 | -3.35832 | 115 ft | 11 kts | 356° |
| 2026-04-25 08:35 | 55.95074 | -3.35932 | 115 ft | 11 kts | 300° |
| 2026-04-25 08:35 | 55.95105 | -3.36060 | 114 ft | 12 kts | 288° |
| 2026-04-25 08:36 | 55.95135 | -3.36237 | 114 ft | 18 kts | 276° |
| 2026-04-25 08:36 | 55.95072 | -3.36461 | 113 ft | 22 kts | 239° |
| 2026-04-25 08:36 | 55.94982 | -3.36723 | 113 ft | 27 kts | 237° |
| 2026-04-25 08:36 | 55.94883 | -3.37011 | 114 ft | 26 kts | 238° |
| 2026-04-25 08:37 | 55.94791 | -3.37280 | 113 ft | 25 kts | 243° |
| 2026-04-25 08:37 | 55.94708 | -3.37536 | 113 ft | 23 kts | 238° |
| 2026-04-25 08:37 | 55.94626 | -3.37777 | 114 ft | 23 kts | 239° |
| 2026-04-25 08:37 | 55.94536 | -3.38044 | 115 ft | 27 kts | 238° |
| 2026-04-25 08:38 | 55.94434 | -3.38342 | 115 ft | 29 kts | 238° |
| 2026-04-25 08:38 | 55.94338 | -3.38621 | 114 ft | 21 kts | 237° |
| 2026-04-25 08:38 | 55.94279 | -3.38809 | 113 ft | 13 kts | 255° |
| 2026-04-25 08:38 | 55.94320 | -3.38904 | 113 ft | 10 kts | 329° |
| 2026-04-25 08:39 | 55.94380 | -3.38970 | 110 ft | 10 kts | 328° |
| 2026-04-25 08:39 | 55.94432 | -3.38935 | 113 ft | 10 kts | 60° |
| 2026-04-25 08:39 | 55.94480 | -3.38785 | 113 ft | 33 kts | 60° |
| 2026-04-25 08:39 | 55.94726 | -3.38052 | 114 ft | 103 kts | 59° |
| 2026-04-25 08:40 | 55.95199 | -3.36652 | 144 ft | 155 kts | 59° |
| 2026-04-25 08:40 | 55.95751 | -3.35007 | 892 ft | 149 kts | 60° |
| 2026-04-25 08:40 | 55.96397 | -3.33593 | 1621 ft | 158 kts | 41° |
| 2026-04-25 08:40 | 55.97241 | -3.32322 | 2346 ft | 164 kts | 43° |
| 2026-04-25 08:41 | 55.98174 | -3.30848 | 2741 ft | 191 kts | 42° |
| 2026-04-25 08:41 | 55.99230 | -3.29178 | 3199 ft | 209 kts | 39° |
| 2026-04-25 08:41 | 56.00523 | -3.27979 | 3754 ft | 214 kts | 7° |
| 2026-04-25 08:41 | 56.01998 | -3.28355 | 4298 ft | 223 kts | 330° |
| 2026-04-25 08:42 | 56.03075 | -3.30278 | 5125 ft | 218 kts | 295° |
| 2026-04-25 08:42 | 56.03324 | -3.32850 | 6114 ft | 213 kts | 267° |
| 2026-04-25 08:42 | 56.03021 | -3.35709 | 6024 ft | 256 kts | 255° |
| 2026-04-25 08:42 | 56.02511 | -3.38843 | 6133 ft | 267 kts | 256° |
| 2026-04-25 08:43 | 56.02028 | -3.42037 | 6048 ft | 265 kts | 257° |
| 2026-04-25 08:43 | 56.01564 | -3.45213 | 6005 ft | 262 kts | 258° |
| 2026-04-25 08:43 | 56.01117 | -3.48346 | 5993 ft | 259 kts | 257° |
| 2026-04-25 08:43 | 56.00680 | -3.51431 | 5999 ft | 262 kts | 257° |
| 2026-04-25 08:44 | 56.00221 | -3.54656 | 6387 ft | 268 kts | 257° |
| 2026-04-25 08:44 | 55.99764 | -3.57864 | 7188 ft | 270 kts | 257° |
| 2026-04-25 08:44 | 55.99301 | -3.61106 | 8089 ft | 270 kts | 258° |
| 2026-04-25 08:44 | 55.98834 | -3.64370 | 8862 ft | 275 kts | 257° |
| 2026-04-25 08:45 | 55.98357 | -3.67696 | 9681 ft | 278 kts | 258° |
| 2026-04-25 08:45 | 55.97876 | -3.71047 | 10473 ft | 281 kts | 258° |
| 2026-04-25 08:45 | 55.97384 | -3.74462 | 11168 ft | 286 kts | 258° |
| 2026-04-25 08:45 | 55.96879 | -3.77971 | 11343 ft | 299 kts | 257° |
| 2026-04-25 08:46 | 55.96363 | -3.81543 | 11274 ft | 294 kts | 258° |
| 2026-04-25 08:46 | 55.95854 | -3.85055 | 11211 ft | 290 kts | 257° |
| 2026-04-25 08:46 | 55.95353 | -3.88502 | 11220 ft | 283 kts | 258° |
| 2026-04-25 08:46 | 55.94859 | -3.91894 | 11225 ft | 285 kts | 257° |
| 2026-04-25 08:47 | 55.94345 | -3.95427 | 11385 ft | 305 kts | 257° |
| 2026-04-25 08:47 | 55.93634 | -3.99151 | 11582 ft | 330 kts | 246° |
| 2026-04-25 08:47 | 55.92397 | -4.02682 | 12148 ft | 341 kts | 233° |
| 2026-04-25 08:47 | 55.90715 | -4.05722 | 12900 ft | 348 kts | 220° |
| 2026-04-25 08:48 | 55.88737 | -4.08248 | 13702 ft | 352 kts | 216° |
| 2026-04-25 08:48 | 55.86690 | -4.10675 | 14444 ft | 356 kts | 215° |
| 2026-04-25 08:48 | 55.84616 | -4.13127 | 15215 ft | 359 kts | 215° |
| 2026-04-25 08:48 | 55.82542 | -4.15611 | 16015 ft | 361 kts | 216° |
| 2026-04-25 08:49 | 55.80461 | -4.18122 | 16797 ft | 363 kts | 215° |
| 2026-04-25 08:49 | 55.78365 | -4.20662 | 17578 ft | 366 kts | 216° |
| 2026-04-25 08:49 | 55.76266 | -4.23261 | 18349 ft | 369 kts | 216° |
| 2026-04-25 08:49 | 55.74110 | -4.25758 | 19018 ft | 373 kts | 206° |
| 2026-04-25 08:50 | 55.71595 | -4.26931 | 19602 ft | 380 kts | 183° |
| 2026-04-25 08:50 | 55.68966 | -4.26430 | 20291 ft | 382 kts | 164° |
| 2026-04-25 08:50 | 55.66533 | -4.24524 | 20983 ft | 384 kts | 152° |
| 2026-04-25 08:50 | 55.64190 | -4.22200 | 21574 ft | 388 kts | 150° |
| 2026-04-25 08:51 | 55.61832 | -4.19801 | 22133 ft | 393 kts | 151° |
| 2026-04-25 08:51 | 55.59450 | -4.17395 | 22741 ft | 396 kts | 151° |
| 2026-04-25 08:51 | 55.57042 | -4.14999 | 23368 ft | 398 kts | 152° |
| 2026-04-25 08:51 | 55.54611 | -4.12608 | 23919 ft | 402 kts | 152° |
| 2026-04-25 08:52 | 55.52155 | -4.10212 | 24407 ft | 405 kts | 152° |
| 2026-04-25 08:52 | 55.49682 | -4.07807 | 24864 ft | 408 kts | 152° |
| 2026-04-25 08:52 | 55.47185 | -4.05383 | 25324 ft | 411 kts | 152° |
| 2026-04-25 08:52 | 55.44674 | -4.02947 | 25817 ft | 413 kts | 152° |
| 2026-04-25 08:53 | 55.42159 | -4.00510 | 26360 ft | 413 kts | 152° |
| 2026-04-25 08:53 | 55.39634 | -3.98066 | 26837 ft | 415 kts | 152° |
| 2026-04-25 08:53 | 55.37093 | -3.95609 | 27258 ft | 419 kts | 152° |
| 2026-04-25 08:53 | 55.34529 | -3.93134 | 27678 ft | 422 kts | 152° |
| 2026-04-25 08:54 | 55.31951 | -3.90648 | 28098 ft | 424 kts | 152° |
| 2026-04-25 08:54 | 55.29390 | -3.88182 | 28525 ft | 427 kts | 152° |
| 2026-04-25 08:54 | 55.26780 | -3.85671 | 28929 ft | 429 kts | 152° |
| 2026-04-25 08:54 | 55.24140 | -3.83138 | 29121 ft | 437 kts | 153° |
| 2026-04-25 08:55 | 55.21453 | -3.80573 | 29416 ft | 441 kts | 153° |
| 2026-04-25 08:55 | 55.18724 | -3.78124 | 29934 ft | 439 kts | 155° |
| 2026-04-25 08:55 | 55.15988 | -3.75779 | 30459 ft | 438 kts | 156° |
| 2026-04-25 08:55 | 55.13232 | -3.73456 | 30765 ft | 441 kts | 156° |
| 2026-04-25 08:56 | 55.10464 | -3.71128 | 31032 ft | 444 kts | 156° |
| 2026-04-25 08:56 | 55.07680 | -3.68778 | 31333 ft | 445 kts | 155° |
| 2026-04-25 08:56 | 55.04893 | -3.66414 | 31713 ft | 445 kts | 155° |
| 2026-04-25 08:56 | 55.02120 | -3.64054 | 32203 ft | 442 kts | 155° |
| 2026-04-25 08:57 | 54.99368 | -3.61709 | 32699 ft | 439 kts | 155° |
| 2026-04-25 08:57 | 54.96630 | -3.59377 | 33139 ft | 437 kts | 155° |
| 2026-04-25 08:57 | 54.93905 | -3.57058 | 33592 ft | 434 kts | 155° |
| 2026-04-25 08:57 | 54.91210 | -3.54767 | 34215 ft | 428 kts | 156° |
| 2026-04-25 08:58 | 54.88544 | -3.52504 | 34596 ft | 426 kts | 155° |
| 2026-04-25 08:58 | 54.85873 | -3.50244 | 34807 ft | 429 kts | 155° |
| 2026-04-25 08:58 | 54.83184 | -3.47972 | 34992 ft | 431 kts | 155° |
| 2026-04-25 08:58 | 54.80487 | -3.45695 | 35282 ft | 431 kts | 155° |
| 2026-04-25 08:59 | 54.77794 | -3.43425 | 35610 ft | 429 kts | 155° |
| 2026-04-25 08:59 | 54.75108 | -3.41164 | 35888 ft | 430 kts | 155° |
| 2026-04-25 08:59 | 54.72419 | -3.38904 | 36128 ft | 431 kts | 155° |
| 2026-04-25 08:59 | 54.69722 | -3.36641 | 36390 ft | 431 kts | 155° |
| 2026-04-25 09:00 | 54.67028 | -3.34384 | 36702 ft | 430 kts | 155° |
| 2026-04-25 09:00 | 54.64338 | -3.32133 | 36982 ft | 430 kts | 155° |
| 2026-04-25 09:00 | 54.61645 | -3.29883 | 37206 ft | 430 kts | 155° |
| 2026-04-25 09:00 | 54.58950 | -3.27635 | 37449 ft | 431 kts | 155° |
| 2026-04-25 09:01 | 54.56249 | -3.25385 | 37701 ft | 431 kts | 155° |
| 2026-04-25 09:01 | 54.53552 | -3.23141 | 37952 ft | 431 kts | 155° |
| 2026-04-25 09:01 | 54.50850 | -3.20897 | 38173 ft | 431 kts | 155° |
| 2026-04-25 09:01 | 54.48142 | -3.18651 | 38295 ft | 434 kts | 155° |
| 2026-04-25 09:02 | 54.45415 | -3.16394 | 38458 ft | 435 kts | 155° |
| 2026-04-25 09:02 | 54.42694 | -3.14143 | 38729 ft | 434 kts | 155° |
| 2026-04-25 09:02 | 54.39977 | -3.11899 | 38978 ft | 433 kts | 155° |
| 2026-04-25 09:02 | 54.37261 | -3.09660 | 39114 ft | 434 kts | 155° |
| 2026-04-25 09:03 | 54.34535 | -3.07416 | 39194 ft | 436 kts | 155° |
| 2026-04-25 09:03 | 54.29037 | -3.02900 | 39212 ft | 438 kts | 156° |
| 2026-04-25 09:04 | 54.23570 | -2.98420 | 39209 ft | 434 kts | 156° |
| 2026-04-25 09:04 | 54.18137 | -2.93981 | 39219 ft | 431 kts | 156° |
| 2026-04-25 09:05 | 54.12681 | -2.89795 | 39221 ft | 429 kts | 159° |
| 2026-04-25 09:05 | 54.07185 | -2.85889 | 39221 ft | 427 kts | 159° |
| 2026-04-25 09:06 | 54.01710 | -2.81936 | 39224 ft | 427 kts | 159° |
| 2026-04-25 09:06 | 53.96273 | -2.77988 | 39224 ft | 429 kts | 159° |
| 2026-04-25 09:07 | 53.90773 | -2.74008 | 39234 ft | 431 kts | 159° |
| 2026-04-25 09:07 | 53.85206 | -2.69997 | 39233 ft | 433 kts | 159° |
| 2026-04-25 09:08 | 53.79676 | -2.66023 | 39243 ft | 436 kts | 159° |
| 2026-04-25 09:08 | 53.74080 | -2.62013 | 39234 ft | 438 kts | 159° |
| 2026-04-25 09:09 | 53.68458 | -2.57996 | 39222 ft | 439 kts | 159° |
| 2026-04-25 09:09 | 53.62824 | -2.53981 | 39236 ft | 440 kts | 159° |
| 2026-04-25 09:10 | 53.57178 | -2.49972 | 39229 ft | 440 kts | 159° |
| 2026-04-25 09:10 | 53.51538 | -2.45974 | 39234 ft | 440 kts | 159° |
| 2026-04-25 09:11 | 53.43096 | -2.40017 | 39211 ft | 437 kts | 159° |
| 2026-04-25 09:11 | 53.37496 | -2.36080 | 39207 ft | 436 kts | 159° |
| 2026-04-25 09:12 | 53.31914 | -2.32164 | 39210 ft | 434 kts | 159° |
| 2026-04-25 09:12 | 53.26350 | -2.28272 | 39210 ft | 433 kts | 159° |
| 2026-04-25 09:13 | 53.21730 | -2.25050 | 39210 ft | 432 kts | 159° |
| 2026-04-25 09:13 | 53.16185 | -2.21193 | 39222 ft | 432 kts | 159° |
| 2026-04-25 09:14 | 53.10636 | -2.17346 | 39223 ft | 432 kts | 159° |
| 2026-04-25 09:14 | 53.05081 | -2.13506 | 39236 ft | 433 kts | 159° |
| 2026-04-25 09:15 | 52.99505 | -2.09661 | 39235 ft | 434 kts | 160° |
| 2026-04-25 09:15 | 52.93914 | -2.05816 | 39233 ft | 435 kts | 159° |
| 2026-04-25 09:16 | 52.88311 | -2.01972 | 39243 ft | 436 kts | 159° |
| 2026-04-25 09:16 | 52.82693 | -1.98129 | 39234 ft | 437 kts | 160° |
| 2026-04-25 09:17 | 52.74239 | -1.92366 | 39222 ft | 438 kts | 160° |
| 2026-04-25 09:18 | 52.68598 | -1.88535 | 39231 ft | 438 kts | 160° |
| 2026-04-25 09:18 | 52.62958 | -1.84714 | 39220 ft | 438 kts | 160° |
| 2026-04-25 09:19 | 52.57348 | -1.80924 | 39215 ft | 439 kts | 160° |
| 2026-04-25 09:19 | 52.51702 | -1.77120 | 39212 ft | 438 kts | 160° |
| 2026-04-25 09:20 | 52.46062 | -1.73330 | 39207 ft | 438 kts | 160° |
| 2026-04-25 09:20 | 52.40424 | -1.69552 | 39210 ft | 438 kts | 160° |
| 2026-04-25 09:21 | 52.35036 | -1.64917 | 39218 ft | 441 kts | 145° |
| 2026-04-25 09:21 | 52.30591 | -1.57971 | 39225 ft | 443 kts | 135° |
| 2026-04-25 09:22 | 52.26382 | -1.50612 | 39204 ft | 444 kts | 135° |
| 2026-04-25 09:22 | 52.22141 | -1.43301 | 39212 ft | 443 kts | 136° |
| 2026-04-25 09:23 | 52.17871 | -1.36042 | 39212 ft | 444 kts | 136° |
| 2026-04-25 09:23 | 52.13587 | -1.28799 | 39215 ft | 444 kts | 136° |
| 2026-04-25 09:24 | 52.09297 | -1.21563 | 39215 ft | 444 kts | 136° |
| 2026-04-25 09:24 | 52.05001 | -1.14333 | 39215 ft | 445 kts | 136° |
| 2026-04-25 09:25 | 52.00692 | -1.07117 | 39224 ft | 445 kts | 136° |
| 2026-04-25 09:25 | 51.96378 | -0.99922 | 39219 ft | 445 kts | 136° |
| 2026-04-25 09:26 | 51.92063 | -0.92730 | 39220 ft | 445 kts | 136° |
| 2026-04-25 09:26 | 51.87748 | -0.85556 | 39226 ft | 445 kts | 136° |
| 2026-04-25 09:27 | 51.83431 | -0.78394 | 39218 ft | 445 kts | 136° |
| 2026-04-25 09:27 | 51.79108 | -0.71251 | 39211 ft | 444 kts | 137° |
| 2026-04-25 09:28 | 51.74784 | -0.64137 | 39226 ft | 444 kts | 137° |
| 2026-04-25 09:28 | 51.70487 | -0.57088 | 39234 ft | 443 kts | 137° |
| 2026-04-25 09:29 | 51.66132 | -0.49959 | 39238 ft | 443 kts | 137° |
| 2026-04-25 09:29 | 51.61836 | -0.42947 | 39238 ft | 443 kts | 137° |
| 2026-04-25 09:30 | 51.57515 | -0.35913 | 39237 ft | 442 kts | 137° |
| 2026-04-25 09:30 | 51.53188 | -0.28890 | 39238 ft | 442 kts | 137° |
| 2026-04-25 09:31 | 51.48864 | -0.21891 | 39239 ft | 441 kts | 137° |
| 2026-04-25 09:31 | 51.44541 | -0.14914 | 39238 ft | 441 kts | 137° |
| 2026-04-25 09:32 | 51.40214 | -0.07946 | 39239 ft | 441 kts | 137° |
| 2026-04-25 09:32 | 51.35890 | -0.00969 | 39235 ft | 442 kts | 134° |
| 2026-04-25 09:32 | 51.34112 | 0.03049 | 39228 ft | 445 kts | 118° |
| 2026-04-25 09:33 | 51.32974 | 0.07659 | 39234 ft | 448 kts | 105° |
| 2026-04-25 09:33 | 51.32302 | 0.17561 | 39257 ft | 450 kts | 94° |
| 2026-04-25 09:34 | 51.31932 | 0.27573 | 39260 ft | 452 kts | 95° |
| 2026-04-25 09:34 | 51.31489 | 0.37621 | 39262 ft | 454 kts | 95° |
| 2026-04-25 09:35 | 51.30997 | 0.47697 | 39256 ft | 456 kts | 95° |
| 2026-04-25 09:35 | 51.30497 | 0.57802 | 39261 ft | 457 kts | 95° |
| 2026-04-25 09:36 | 51.30068 | 0.67949 | 39251 ft | 458 kts | 94° |
| 2026-04-25 09:36 | 51.29727 | 0.78124 | 39247 ft | 459 kts | 94° |
| 2026-04-25 09:37 | 51.29365 | 0.88300 | 39236 ft | 459 kts | 94° |
| 2026-04-25 09:37 | 51.28982 | 0.98464 | 39234 ft | 458 kts | 94° |
| 2026-04-25 09:38 | 51.28588 | 1.08617 | 39232 ft | 458 kts | 94° |
| 2026-04-25 09:38 | 51.28386 | 1.13711 | 38917 ft | 463 kts | 94° |
| 2026-04-25 09:38 | 51.28181 | 1.18844 | 38373 ft | 462 kts | 94° |
| 2026-04-25 09:38 | 51.27975 | 1.24013 | 37401 ft | 468 kts | 94° |
| 2026-04-25 09:39 | 51.27767 | 1.29128 | 37235 ft | 457 kts | 94° |
| 2026-04-25 09:39 | 51.27559 | 1.34155 | 36934 ft | 451 kts | 94° |
| 2026-04-25 09:39 | 51.27353 | 1.39113 | 36661 ft | 444 kts | 94° |
| 2026-04-25 09:40 | 51.26943 | 1.48821 | 35987 ft | 435 kts | 94° |
| 2026-04-25 09:40 | 51.26736 | 1.53644 | 35477 ft | 436 kts | 94° |
| 2026-04-25 09:40 | 51.26527 | 1.58452 | 35098 ft | 433 kts | 94° |
| 2026-04-25 09:40 | 51.26320 | 1.63173 | 34717 ft | 431 kts | 95° |
| 2026-04-25 09:41 | 51.26110 | 1.67934 | 34336 ft | 429 kts | 95° |
| 2026-04-25 09:41 | 51.25899 | 1.72667 | 33922 ft | 427 kts | 95° |
| 2026-04-25 09:41 | 51.25688 | 1.77381 | 33512 ft | 424 kts | 95° |
| 2026-04-25 09:41 | 51.25476 | 1.82062 | 33121 ft | 422 kts | 95° |
| 2026-04-25 09:42 | 51.25264 | 1.86716 | 32749 ft | 419 kts | 95° |
| 2026-04-25 09:42 | 51.25052 | 1.91334 | 32397 ft | 416 kts | 94° |
| 2026-04-25 09:42 | 51.24838 | 1.95928 | 32029 ft | 414 kts | 94° |
| 2026-04-25 09:42 | 51.24477 | 2.00468 | 31657 ft | 412 kts | 103° |
| 2026-04-25 09:43 | 51.23659 | 2.04846 | 31152 ft | 413 kts | 111° |
| 2026-04-25 09:43 | 51.22660 | 2.09119 | 30800 ft | 410 kts | 111° |
| 2026-04-25 09:43 | 51.21640 | 2.13370 | 30416 ft | 409 kts | 112° |
| 2026-04-25 09:43 | 51.20627 | 2.17600 | 30020 ft | 407 kts | 111° |
| 2026-04-25 09:44 | 51.19629 | 2.21814 | 29615 ft | 405 kts | 111° |
| 2026-04-25 09:44 | 51.18647 | 2.25997 | 29239 ft | 402 kts | 111° |
| 2026-04-25 09:44 | 51.17676 | 2.30155 | 28873 ft | 399 kts | 111° |
| 2026-04-25 09:44 | 51.16715 | 2.34280 | 28501 ft | 396 kts | 111° |
| 2026-04-25 09:45 | 51.15761 | 2.38372 | 28130 ft | 393 kts | 110° |
| 2026-04-25 09:45 | 51.14811 | 2.42440 | 27766 ft | 391 kts | 110° |
| 2026-04-25 09:45 | 51.13867 | 2.46477 | 27401 ft | 388 kts | 110° |
| 2026-04-25 09:45 | 51.12925 | 2.50496 | 27047 ft | 386 kts | 110° |
| 2026-04-25 09:46 | 51.11988 | 2.54487 | 26696 ft | 384 kts | 110° |
| 2026-04-25 09:46 | 51.11055 | 2.58458 | 26346 ft | 382 kts | 110° |
| 2026-04-25 09:46 | 51.10123 | 2.62406 | 25992 ft | 380 kts | 110° |
| 2026-04-25 09:46 | 51.09237 | 2.66362 | 25626 ft | 379 kts | 105° |
| 2026-04-25 09:47 | 51.08622 | 2.70433 | 25225 ft | 378 kts | 100° |
| 2026-04-25 09:47 | 51.08148 | 2.74542 | 24866 ft | 377 kts | 98° |
| 2026-04-25 09:47 | 51.07712 | 2.78652 | 24501 ft | 376 kts | 98° |
| 2026-04-25 09:47 | 51.07273 | 2.82748 | 24149 ft | 376 kts | 98° |
| 2026-04-25 09:48 | 51.06819 | 2.86833 | 23783 ft | 375 kts | 98° |
| 2026-04-25 09:48 | 51.06349 | 2.90913 | 23363 ft | 375 kts | 98° |
| 2026-04-25 09:48 | 51.05870 | 2.94971 | 22999 ft | 372 kts | 99° |
| 2026-04-25 09:48 | 51.05387 | 2.98997 | 22636 ft | 370 kts | 99° |
| 2026-04-25 09:49 | 51.04901 | 3.02998 | 22285 ft | 367 kts | 99° |
| 2026-04-25 09:49 | 51.04415 | 3.06968 | 21945 ft | 364 kts | 99° |
| 2026-04-25 09:49 | 51.03931 | 3.10904 | 21602 ft | 362 kts | 99° |
| 2026-04-25 09:49 | 51.03455 | 3.14762 | 21266 ft | 359 kts | 100° |
| 2026-04-25 09:50 | 51.02969 | 3.18694 | 20928 ft | 357 kts | 100° |
| 2026-04-25 09:50 | 51.02491 | 3.22547 | 20588 ft | 354 kts | 100° |
| 2026-04-25 09:50 | 51.02015 | 3.26371 | 20251 ft | 352 kts | 100° |
| 2026-04-25 09:50 | 51.01542 | 3.30169 | 19926 ft | 349 kts | 101° |
| 2026-04-25 09:51 | 51.01076 | 3.33888 | 19605 ft | 347 kts | 100° |
| 2026-04-25 09:51 | 51.00607 | 3.37631 | 19278 ft | 345 kts | 100° |
| 2026-04-25 09:51 | 51.00140 | 3.41346 | 18954 ft | 342 kts | 101° |
| 2026-04-25 09:51 | 50.99675 | 3.45032 | 18626 ft | 337 kts | 101° |
| 2026-04-25 09:52 | 50.99218 | 3.48644 | 18270 ft | 331 kts | 101° |
| 2026-04-25 09:52 | 50.98769 | 3.52186 | 17920 ft | 324 kts | 101° |
| 2026-04-25 09:52 | 50.98328 | 3.55651 | 17617 ft | 317 kts | 101° |
| 2026-04-25 09:52 | 50.97896 | 3.59042 | 17308 ft | 310 kts | 101° |
| 2026-04-25 09:53 | 50.97472 | 3.62360 | 17002 ft | 304 kts | 101° |
| 2026-04-25 09:53 | 50.97055 | 3.65618 | 16701 ft | 298 kts | 101° |
| 2026-04-25 09:53 | 50.96644 | 3.68826 | 16418 ft | 296 kts | 101° |
| 2026-04-25 09:53 | 50.96230 | 3.72045 | 16144 ft | 299 kts | 101° |
| 2026-04-25 09:54 | 50.95809 | 3.75321 | 15862 ft | 308 kts | 101° |
| 2026-04-25 09:54 | 50.95373 | 3.78694 | 15573 ft | 316 kts | 101° |
| 2026-04-25 09:54 | 50.94929 | 3.82126 | 15242 ft | 318 kts | 100° |
| 2026-04-25 09:54 | 50.94484 | 3.85561 | 14929 ft | 317 kts | 100° |
| 2026-04-25 09:55 | 50.94038 | 3.88985 | 14605 ft | 316 kts | 100° |
| 2026-04-25 09:55 | 50.93593 | 3.92394 | 14293 ft | 316 kts | 101° |
| 2026-04-25 09:55 | 50.93148 | 3.95798 | 13979 ft | 315 kts | 101° |
| 2026-04-25 09:55 | 50.92425 | 3.99056 | 13600 ft | 316 kts | 122° |
| 2026-04-25 09:56 | 50.90994 | 4.01625 | 13388 ft | 310 kts | 139° |
| 2026-04-25 09:56 | 50.89334 | 4.03808 | 13062 ft | 309 kts | 142° |
| 2026-04-25 09:56 | 50.87653 | 4.05911 | 12750 ft | 308 kts | 142° |
| 2026-04-25 09:56 | 50.85973 | 4.08004 | 12440 ft | 307 kts | 142° |
| 2026-04-25 09:57 | 50.84304 | 4.10099 | 12130 ft | 306 kts | 142° |
| 2026-04-25 09:57 | 50.82647 | 4.12193 | 11818 ft | 305 kts | 142° |
| 2026-04-25 09:57 | 50.80996 | 4.14292 | 11514 ft | 304 kts | 142° |
| 2026-04-25 09:57 | 50.79352 | 4.16388 | 11202 ft | 303 kts | 141° |
| 2026-04-25 09:58 | 50.77713 | 4.18480 | 10904 ft | 302 kts | 141° |
| 2026-04-25 09:58 | 50.76082 | 4.20563 | 10603 ft | 302 kts | 141° |
| 2026-04-25 09:58 | 50.74453 | 4.22643 | 10352 ft | 299 kts | 142° |
| 2026-04-25 09:58 | 50.72854 | 4.24683 | 10183 ft | 293 kts | 142° |
| 2026-04-25 09:59 | 50.71266 | 4.26704 | 9859 ft | 293 kts | 142° |
| 2026-04-25 09:59 | 50.69679 | 4.28722 | 9553 ft | 292 kts | 142° |
| 2026-04-25 09:59 | 50.67998 | 4.30494 | 9238 ft | 291 kts | 152° |
| 2026-04-25 09:59 | 50.66199 | 4.31985 | 8827 ft | 293 kts | 154° |
| 2026-04-25 10:00 | 50.64376 | 4.33437 | 8503 ft | 293 kts | 154° |
| 2026-04-25 10:00 | 50.63174 | 4.34402 | 8290 ft | 292 kts | 154° |
| 2026-04-25 10:00 | 50.60766 | 4.36368 | 7903 ft | 291 kts | 153° |
| 2026-04-25 10:00 | 50.59583 | 4.37349 | 7717 ft | 290 kts | 153° |
| 2026-04-25 10:01 | 50.57235 | 4.39309 | 7349 ft | 288 kts | 152° |
| 2026-04-25 10:01 | 50.55473 | 4.40783 | 7074 ft | 286 kts | 152° |
| 2026-04-25 10:01 | 50.53723 | 4.42247 | 6802 ft | 284 kts | 153° |
| 2026-04-25 10:01 | 50.51872 | 4.43234 | 6492 ft | 282 kts | 177° |
| 2026-04-25 10:02 | 50.49971 | 4.42761 | 6215 ft | 276 kts | 205° |
| 2026-04-25 10:02 | 50.48434 | 4.41036 | 5940 ft | 271 kts | 231° |
| 2026-04-25 10:02 | 50.47743 | 4.39376 | 5747 ft | 268 kts | 247° |
| 2026-04-25 10:02 | 50.47282 | 4.36620 | 5474 ft | 264 kts | 269° |
| 2026-04-25 10:03 | 50.47363 | 4.33758 | 5248 ft | 260 kts | 276° |
| 2026-04-25 10:03 | 50.47511 | 4.30976 | 5052 ft | 256 kts | 276° |
| 2026-04-25 10:03 | 50.47643 | 4.28186 | 4815 ft | 255 kts | 271° |
| 2026-04-25 10:03 | 50.47222 | 4.25532 | 4672 ft | 250 kts | 246° |
| 2026-04-25 10:04 | 50.46495 | 4.23094 | 4535 ft | 243 kts | 246° |
| 2026-04-25 10:04 | 50.45749 | 4.20750 | 4391 ft | 238 kts | 237° |
| 2026-04-25 10:04 | 50.44520 | 4.19108 | 4194 ft | 234 kts | 201° |
| 2026-04-25 10:04 | 50.42953 | 4.18847 | 4061 ft | 223 kts | 169° |
| 2026-04-25 10:05 | 50.41494 | 4.19548 | 3750 ft | 221 kts | 154° |
| 2026-04-25 10:05 | 50.40334 | 4.20999 | 3559 ft | 211 kts | 122° |
| 2026-04-25 10:05 | 50.39881 | 4.23131 | 3248 ft | 206 kts | 89° |
| 2026-04-25 10:05 | 50.40134 | 4.25275 | 3105 ft | 197 kts | 66° |
| 2026-04-25 10:06 | 50.40726 | 4.27174 | 2862 ft | 192 kts | 63° |
| 2026-04-25 10:06 | 50.41296 | 4.29036 | 2618 ft | 189 kts | 65° |
| 2026-04-25 10:06 | 50.41828 | 4.30896 | 2457 ft | 186 kts | 65° |
| 2026-04-25 10:06 | 50.42367 | 4.32719 | 2262 ft | 181 kts | 65° |
| 2026-04-25 10:07 | 50.42869 | 4.34432 | 2099 ft | 164 kts | 66° |
| 2026-04-25 10:07 | 50.43332 | 4.36066 | 1905 ft | 165 kts | 66° |
| 2026-04-25 10:07 | 50.43808 | 4.37696 | 1623 ft | 159 kts | 66° |
| 2026-04-25 10:07 | 50.44233 | 4.39221 | 1365 ft | 149 kts | 66° |
| 2026-04-25 10:08 | 50.44649 | 4.40693 | 1151 ft | 147 kts | 64° |
| 2026-04-25 10:08 | 50.45066 | 4.42135 | 954 ft | 145 kts | 63° |
| 2026-04-25 10:08 | 50.45494 | 4.43583 | 737 ft | 148 kts | 64° |
| 2026-04-25 10:08 | 50.45916 | 4.45035 | 620 ft | 140 kts | 66° |
| 2026-04-25 10:09 | 50.46258 | 4.46212 | 620 ft | 97 kts | 65° |
| 2026-04-25 10:09 | 50.46439 | 4.46826 | 621 ft | 35 kts | 60° |
| 2026-04-25 10:09 | 50.46575 | 4.46841 | 615 ft | 10 kts | 337° |
| 2026-04-25 10:09 | 50.46597 | 4.46828 | 621 ft | 3 kts | 339° |
| 2026-04-25 10:10 | 50.46613 | 4.46818 | 623 ft | 2 kts | 338° |
| 2026-04-25 10:10 | 50.46628 | 4.46808 | 615 ft | 2 kts | 337° |
| 2026-04-25 10:10 | 50.46645 | 4.46797 | 624 ft | 4 kts | 337° |
| 2026-04-25 10:10 | 50.46685 | 4.46773 | 615 ft | 8 kts | 349° |
| 2026-04-25 10:11 | 50.46734 | 4.46831 | 617 ft | 11 kts | 62° |
| 2026-04-25 10:11 | 50.46755 | 4.46843 | 613 ft | 3 kts | 330° |
| 2026-04-25 10:11 | 50.46777 | 4.46828 | 620 ft | 3 kts | 335° |
| 2026-04-25 10:11 | 50.46791 | 4.46818 | 625 ft | 0 kts | 335° |